Time;durP1;ratioP1;P1;durP2;ratioP2;P2;SDS_P1;SDS_P2;PMS_P1;PMS_P2;Temp;Humidity;BMP_temperature;BMP_pressure;BME280_temperature;BME280_humidity;BME280_pressure;Samples;Min_cycle;Max_cycle;Signal;HPM_P1;HPM_P2
2022/11/19 00:02:00;;;;;;;10.55;6.32;;;;;;;7.54;100.00;99540.91;5024984;28;20208;-74
2022/11/19 00:04:26;;;;;;;7.50;5.75;;;;;;;7.47;100.00;99537.66;5028509;28;20228;-74
2022/11/19 00:06:54;;;;;;;7.88;6.50;;;;;;;7.39;100.00;99539.81;5015844;28;20210;-75
2022/11/19 00:09:20;;;;;;;10.02;6.95;;;;;;;7.39;100.00;99542.50;5033586;28;20650;-75
2022/11/19 00:14:33;;;;;;;13.15;6.93;;;;;;;7.20;100.00;99545.16;5037768;28;20234;-75
2022/11/19 00:17:00;;;;;;;9.65;7.13;;;;;;;7.09;100.00;99544.75;5030180;28;20193;-78
2022/11/19 00:19:26;;;;;;;10.25;6.90;;;;;;;7.03;100.00;99548.59;5034041;28;20391;-76
2022/11/19 00:21:54;;;;;;;8.00;6.50;;;;;;;7.05;100.00;99552.03;5036075;28;20281;-75
2022/11/19 00:24:21;;;;;;;7.63;6.60;;;;;;;7.00;100.00;99547.84;5029970;28;20202;-73
2022/11/19 00:26:48;;;;;;;7.50;6.10;;;;;;;6.95;100.00;99549.88;5023680;28;20672;-76
2022/11/19 00:29:14;;;;;;;8.05;6.75;;;;;;;6.95;100.00;99545.38;5021516;28;20225;-75
2022/11/19 00:31:41;;;;;;;8.57;6.30;;;;;;;6.89;100.00;99545.63;5031027;28;20642;-75
2022/11/19 00:34:08;;;;;;;8.00;6.28;;;;;;;6.80;100.00;99546.91;5039578;28;20197;-75
2022/11/19 00:36:34;;;;;;;12.77;6.32;;;;;;;6.80;100.00;99546.03;5022019;28;20227;-75
2022/11/19 00:39:02;;;;;;;10.80;7.10;;;;;;;6.71;100.00;99557.13;5030815;28;20301;-78
2022/11/19 00:41:29;;;;;;;8.57;7.40;;;;;;;6.73;100.00;99556.13;5038209;28;20240;-75
2022/11/19 00:43:55;;;;;;;16.40;6.40;;;;;;;6.65;100.00;99558.28;5030705;28;20283;-75
2022/11/19 00:46:24;;;;;;;8.77;7.05;;;;;;;6.65;100.00;99559.16;5045096;28;20624;-75
2022/11/19 00:48:52;;;;;;;8.45;6.90;;;;;;;6.54;100.00;99558.75;5032546;28;20256;-74
2022/11/19 00:51:20;;;;;;;10.45;7.80;;;;;;;6.53;100.00;99553.44;5044365;28;20594;-75
2022/11/19 00:53:47;;;;;;;9.75;7.78;;;;;;;6.40;100.00;99551.28;5039893;28;20211;-74
2022/11/19 00:56:17;;;;;;;8.90;7.55;;;;;;;6.43;100.00;99553.84;5036918;28;20201;-75
2022/11/19 00:58:43;;;;;;;9.77;7.47;;;;;;;6.34;100.00;99554.22;5032888;28;20232;-76
2022/11/19 01:01:11;;;;;;;8.93;7.55;;;;;;;6.40;100.00;99561.09;5032143;28;20216;-73
2022/11/19 01:03:38;;;;;;;15.73;10.68;;;;;;;6.42;100.00;99561.91;5045948;28;20211;-75
2022/11/19 01:06:06;;;;;;;24.38;16.77;;;;;;;6.37;100.00;99569.25;5040462;28;20219;-76
2022/11/19 01:08:33;;;;;;;18.95;12.23;;;;;;;6.36;100.00;99555.03;5039679;28;20220;-74
2022/11/19 01:11:05;;;;;;;12.38;9.13;;;;;;;6.43;100.00;99558.31;5047019;28;20211;-73
2022/11/19 01:13:36;;;;;;;9.70;7.65;;;;;;;6.49;100.00;99558.06;5053889;28;20231;-75
2022/11/19 01:16:06;;;;;;;11.20;7.55;;;;;;;6.44;100.00;99566.28;5047705;28;20657;-73
2022/11/19 01:18:33;;;;;;;10.30;7.55;;;;;;;6.47;100.00;99568.81;5035453;28;20216;-73
2022/11/19 01:21:00;;;;;;;10.35;8.20;;;;;;;6.45;100.00;99578.72;5025236;28;20295;-73
2022/11/19 01:23:27;;;;;;;9.93;7.72;;;;;;;6.31;100.00;99578.44;5026713;28;20204;-74
2022/11/19 01:25:54;;;;;;;10.70;7.22;;;;;;;6.28;100.00;99577.66;5031631;28;20193;-74
2022/11/19 01:28:20;;;;;;;9.23;7.20;;;;;;;6.32;100.00;99569.44;5034768;28;20617;-73
2022/11/19 01:30:48;;;;;;;10.15;7.60;;;;;;;6.22;100.00;99577.00;5031587;28;20231;-74
2022/11/19 01:33:15;;;;;;;11.73;8.32;;;;;;;6.28;100.00;99575.00;5029178;28;20723;-73
2022/11/19 01:35:42;;;;;;;11.00;8.23;;;;;;;6.25;100.00;99582.19;5046348;28;20296;-75
2022/11/19 01:38:08;;;;;;;12.45;8.30;;;;;;;6.21;100.00;99579.72;5038276;28;20659;-73
2022/11/19 01:40:42;;;;;;;11.57;8.60;;;;;;;6.14;100.00;99580.91;5027969;28;20209;-74
2022/11/19 01:43:11;;;;;;;10.63;7.82;;;;;;;6.07;100.00;99576.75;5034306;28;20185;-73
2022/11/19 01:45:39;;;;;;;10.00;8.07;;;;;;;5.99;100.00;99582.38;5028214;28;20296;-73
2022/11/19 01:48:12;;;;;;;11.05;8.73;;;;;;;5.99;100.00;99583.25;5023210;28;20316;-73
2022/11/19 01:50:42;;;;;;;10.30;8.13;;;;;;;5.95;100.00;99588.78;5024233;28;20197;-74
2022/11/19 01:53:10;;;;;;;10.75;8.30;;;;;;;5.93;100.00;99583.47;5018335;28;20296;-74
2022/11/19 01:55:39;;;;;;;11.90;9.07;;;;;;;5.80;100.00;99587.53;5038053;28;20244;-73
2022/11/19 01:58:07;;;;;;;12.05;8.77;;;;;;;5.70;100.00;99589.72;5037801;28;20221;-76
2022/11/19 02:00:34;;;;;;;11.95;8.60;;;;;;;5.73;100.00;99597.59;5028942;28;20645;-74
2022/11/19 02:03:00;;;;;;;10.85;8.18;;;;;;;5.71;100.00;99596.78;5029691;28;20189;-75
2022/11/19 02:05:28;;;;;;;12.55;8.75;;;;;;;5.72;100.00;99593.19;5027197;28;20201;-73
2022/11/19 02:07:58;;;;;;;11.63;8.82;;;;;;;5.64;100.00;99592.59;5023965;28;20226;-74
2022/11/19 02:10:33;;;;;;;12.85;9.07;;;;;;;5.47;100.00;99587.03;5031464;28;20729;-75
2022/11/19 02:13:10;;;;;;;12.45;9.10;;;;;;;5.43;100.00;99597.81;5027283;28;20219;-74
2022/11/19 02:15:45;;;;;;;15.48;9.40;;;;;;;5.55;100.00;99596.50;5014753;28;20205;-74
2022/11/19 02:18:35;;;;;;;14.80;9.65;;;;;;;5.46;100.00;99593.31;5013939;28;20224;-74
2022/11/19 02:21:12;;;;;;;14.30;10.40;;;;;;;5.42;100.00;99601.41;5038181;28;20641;-74
2022/11/19 02:24:09;;;;;;;18.23;11.30;;;;;;;5.41;100.00;99604.16;5025400;28;20206;-73
2022/11/19 02:27:13;;;;;;;14.02;10.48;;;;;;;5.35;100.00;99596.38;5014413;28;20204;-75
2022/11/19 02:30:06;;;;;;;17.60;12.00;;;;;;;5.35;100.00;99599.03;5025715;28;20296;-73
2022/11/19 02:32:36;;;;;;;14.52;10.23;;;;;;;5.20;100.00;99598.69;5000251;28;20227;-75
2022/11/19 02:35:12;;;;;;;17.20;10.82;;;;;;;5.21;100.00;99595.06;5028121;28;20200;-73
2022/11/19 02:37:45;;;;;;;16.08;10.95;;;;;;;5.19;100.00;99598.72;5033776;28;20218;-74
2022/11/19 02:40:19;;;;;;;13.73;10.60;;;;;;;5.09;100.00;99600.84;5033131;28;20639;-73
2022/11/19 02:42:53;;;;;;;16.83;11.48;;;;;;;5.04;100.00;99600.13;5038702;28;20550;-73
2022/11/19 02:45:26;;;;;;;18.50;9.93;;;;;;;5.06;100.00;99597.41;5031872;28;20289;-74
2022/11/19 02:47:55;;;;;;;16.45;10.98;;;;;;;5.10;100.00;99602.59;5034365;28;20225;-75
2022/11/19 02:50:25;;;;;;;15.57;11.20;;;;;;;5.06;100.00;99598.28;5024964;28;20233;-74
2022/11/19 02:52:52;;;;;;;16.08;10.70;;;;;;;5.11;100.00;99607.03;5039666;28;20217;-74
2022/11/19 02:55:20;;;;;;;18.10;12.27;;;;;;;5.22;100.00;99601.25;5042254;28;20578;-74
2022/11/19 02:57:51;;;;;;;15.25;10.55;;;;;;;5.22;100.00;99609.28;5033320;28;20222;-74
2022/11/19 03:05:58;;;;;;;14.27;10.45;;;;;;;5.04;100.00;99617.94;5028944;28;20671;-73
2022/11/19 03:08:26;;;;;;;15.32;10.88;;;;;;;5.03;100.00;99625.09;5032103;28;20214;-75
2022/11/19 03:11:02;;;;;;;15.73;11.25;;;;;;;5.10;100.00;99623.94;5040965;28;20198;-73
2022/11/19 03:16:42;;;;;;;15.57;11.73;;;;;;;4.90;100.00;99629.09;5046356;28;20209;-73
2022/11/19 03:19:33;;;;;;;17.83;12.40;;;;;;;4.80;100.00;99624.09;5030716;28;20234;-73
2022/11/19 03:22:06;;;;;;;18.52;13.50;;;;;;;4.77;100.00;99631.31;5041879;28;20621;-74
2022/11/19 03:24:37;;;;;;;19.33;12.38;;;;;;;4.71;100.00;99644.88;5040840;28;20224;-74
2022/11/19 03:27:09;;;;;;;18.33;11.98;;;;;;;4.77;100.00;99645.53;5046334;28;20208;-74
2022/11/19 03:29:40;;;;;;;20.33;13.27;;;;;;;4.73;100.00;99653.69;5030797;28;20306;-74
2022/11/19 03:32:12;;;;;;;17.25;12.10;;;;;;;4.84;100.00;99662.22;5042708;28;20297;-74
2022/11/19 03:34:43;;;;;;;19.50;12.32;;;;;;;4.73;100.00;99661.69;5032720;28;20228;-73
2022/11/19 03:37:11;;;;;;;20.02;12.93;;;;;;;4.61;100.00;99665.63;5041584;28;20202;-73
2022/11/19 03:39:40;;;;;;;20.17;13.35;;;;;;;4.62;100.00;99655.84;5029548;28;20259;-74
2022/11/19 03:42:11;;;;;;;20.40;13.30;;;;;;;4.57;100.00;99658.66;5038026;28;20229;-75
2022/11/19 03:44:43;;;;;;;19.48;13.10;;;;;;;4.56;100.00;99656.91;5023909;28;20198;-76
2022/11/19 03:47:12;;;;;;;20.08;13.25;;;;;;;4.56;100.00;99656.91;5050626;28;20193;-75
2022/11/19 03:49:44;;;;;;;19.55;12.85;;;;;;;4.57;100.00;99656.88;5035764;28;20217;-76
2022/11/19 03:52:12;;;;;;;20.50;13.80;;;;;;;4.57;100.00;99659.53;5051034;28;20293;-74
2022/11/19 03:54:40;;;;;;;18.80;12.57;;;;;;;4.55;100.00;99663.19;5045485;28;20199;-73
2022/11/19 03:57:08;;;;;;;20.10;12.80;;;;;;;4.54;100.00;99656.06;5039100;28;20223;-75
2022/11/19 03:59:34;;;;;;;18.17;12.73;;;;;;;4.59;100.00;99663.03;5036353;28;20309;-73
2022/11/19 04:02:04;;;;;;;21.25;13.15;;;;;;;4.60;100.00;99667.41;5040073;28;20304;-74
2022/11/19 04:04:36;;;;;;;17.85;11.50;;;;;;;4.58;100.00;99663.94;5048108;28;20304;-73
2022/11/19 04:07:06;;;;;;;19.65;12.90;;;;;;;4.57;100.00;99662.19;5038938;28;20569;-74
2022/11/19 04:09:33;;;;;;;19.17;12.05;;;;;;;4.62;100.00;99671.84;5052728;28;20224;-74
2022/11/19 04:12:00;;;;;;;19.45;12.07;;;;;;;4.61;100.00;99670.94;5048033;28;20575;-74
2022/11/19 04:14:27;;;;;;;18.42;12.70;;;;;;;4.63;100.00;99674.44;5040153;28;20202;-73
2022/11/19 04:16:53;;;;;;;17.50;11.43;;;;;;;4.58;100.00;99668.41;5039636;28;20289;-74
2022/11/19 04:19:20;;;;;;;17.75;11.75;;;;;;;4.56;100.00;99676.44;5035096;28;20309;-74
2022/11/19 04:21:47;;;;;;;17.67;12.15;;;;;;;4.58;100.00;99671.06;5033065;28;20285;-75
2022/11/19 04:24:15;;;;;;;19.00;11.48;;;;;;;4.60;100.00;99679.88;5026417;28;20195;-74
2022/11/19 04:26:41;;;;;;;17.50;12.00;;;;;;;4.64;100.00;99678.00;5042318;28;20197;-74
2022/11/19 04:29:08;;;;;;;17.98;11.88;;;;;;;4.71;100.00;99680.41;5037679;28;20295;-75
2022/11/19 04:31:34;;;;;;;18.20;12.27;;;;;;;4.67;100.00;99678.75;5032224;28;20193;-74
2022/11/19 04:34:01;;;;;;;19.55;12.43;;;;;;;4.72;100.00;99682.13;5033314;28;20218;-73
2022/11/19 04:36:27;;;;;;;16.40;11.35;;;;;;;4.63;100.00;99674.44;5042323;28;20210;-74
2022/11/19 04:38:54;;;;;;;17.50;11.20;;;;;;;4.64;100.00;99678.00;5033157;28;20296;-73
2022/11/19 04:41:23;;;;;;;19.27;12.00;;;;;;;4.63;100.00;99685.13;5055139;28;20206;-73
2022/11/19 04:43:49;;;;;;;18.83;11.80;;;;;;;4.58;100.00;99684.41;5050602;28;20200;-74
2022/11/19 04:46:16;;;;;;;18.75;11.63;;;;;;;4.63;100.00;99689.59;5041406;28;20198;-75
2022/11/19 04:48:42;;;;;;;18.58;11.18;;;;;;;4.52;100.00;99682.81;5059004;28;20221;-75
2022/11/19 04:51:09;;;;;;;16.80;11.00;;;;;;;4.53;100.00;99681.88;5051727;28;20250;-76
2022/11/19 04:53:35;;;;;;;16.17;11.65;;;;;;;4.55;100.00;99681.84;5032492;28;20575;-74
2022/11/19 04:56:02;;;;;;;19.73;10.48;;;;;;;4.57;100.00;99678.19;5036977;28;20198;-73
2022/11/19 04:58:30;;;;;;;11.65;8.73;;;;;;;4.57;100.00;99682.66;5037227;28;20305;-75
2022/11/19 05:00:56;;;;;;;13.10;8.60;;;;;;;4.58;100.00;99687.06;5044886;28;20290;-73
2022/11/19 05:03:23;;;;;;;12.02;8.20;;;;;;;4.62;100.00;99678.06;5046891;28;20202;-73
2022/11/19 05:05:49;;;;;;;9.98;7.00;;;;;;;4.59;100.00;99695.03;5041295;28;20199;-73
2022/11/19 05:08:16;;;;;;;9.45;6.45;;;;;;;4.64;100.00;99697.53;5034992;28;20218;-73
2022/11/19 05:10:44;;;;;;;12.50;7.38;;;;;;;4.58;100.00;99700.41;5040568;28;20194;-74
2022/11/19 05:13:10;;;;;;;10.32;7.45;;;;;;;4.62;100.00;99699.38;5032009;28;20622;-76
2022/11/19 05:15:38;;;;;;;9.27;6.45;;;;;;;4.64;100.00;99702.00;5036551;28;20204;-74
2022/11/19 05:18:05;;;;;;;10.35;7.05;;;;;;;4.62;100.00;99701.19;5027947;28;20225;-73
2022/11/19 05:20:32;;;;;;;9.77;6.78;;;;;;;4.71;100.00;99706.22;5038448;28;20539;-74
2022/11/19 05:22:58;;;;;;;9.05;6.78;;;;;;;4.69;100.00;99700.06;5039764;28;20232;-76
2022/11/19 05:25:25;;;;;;;12.18;7.45;;;;;;;4.64;100.00;99705.53;5043789;28;20199;-74
2022/11/19 05:27:51;;;;;;;9.73;7.30;;;;;;;4.58;100.00;99705.72;5044937;28;20561;-75
2022/11/19 05:30:18;;;;;;;10.18;6.85;;;;;;;4.53;100.00;99710.34;5040168;28;20873;-74
2022/11/19 05:32:46;;;;;;;8.60;6.40;;;;;;;4.61;100.00;99708.28;5036591;28;20223;-74
2022/11/19 05:35:13;;;;;;;9.57;6.90;;;;;;;4.54;100.00;99706.75;5039935;28;20210;-76
2022/11/19 05:37:40;;;;;;;9.75;7.10;;;;;;;4.45;100.00;99705.25;5048822;28;20218;-74
2022/11/19 05:40:08;;;;;;;11.30;6.70;;;;;;;4.52;100.00;99711.25;5038608;28;20711;-76
2022/11/19 05:42:34;;;;;;;9.27;7.50;;;;;;;4.54;100.00;99715.59;5025556;28;20284;-74
2022/11/19 05:45:01;;;;;;;10.60;7.43;;;;;;;4.60;100.00;99723.44;5043308;28;20195;-76
2022/11/19 05:47:27;;;;;;;10.77;7.60;;;;;;;4.56;100.00;99727.09;5030283;28;20731;-78
2022/11/19 05:49:55;;;;;;;10.05;7.78;;;;;;;4.48;100.00;99723.81;5032375;28;20548;-76
2022/11/19 05:52:22;;;;;;;11.80;7.93;;;;;;;4.46;100.00;99731.00;5038541;28;20553;-74
2022/11/19 05:54:48;;;;;;;9.55;7.07;;;;;;;4.48;100.00;99733.63;5038673;28;20212;-75
2022/11/19 05:57:15;;;;;;;11.43;7.45;;;;;;;4.44;100.00;99727.50;5043129;28;20579;-75
2022/11/19 05:59:41;;;;;;;11.05;8.00;;;;;;;4.31;100.00;99732.31;5043447;28;20279;-76
2022/11/19 06:02:08;;;;;;;10.18;7.20;;;;;;;4.28;100.00;99734.22;5037160;28;20685;-76
2022/11/19 06:04:34;;;;;;;10.77;7.72;;;;;;;4.31;100.00;99736.78;5038061;28;20194;-76
2022/11/19 06:07:02;;;;;;;11.05;7.45;;;;;;;4.34;100.00;99740.25;5042325;28;20213;-75
2022/11/19 06:09:29;;;;;;;11.82;7.82;;;;;;;4.32;100.00;99736.75;5048194;28;20579;-75
2022/11/19 06:11:55;;;;;;;10.15;6.95;;;;;;;4.26;100.00;99734.28;5040260;28;20205;-77
2022/11/19 06:14:24;;;;;;;11.35;7.75;;;;;;;4.22;100.00;99737.94;5049044;28;20222;-76
2022/11/19 06:16:51;;;;;;;10.95;7.20;;;;;;;4.20;100.00;99745.09;5044784;28;20197;-75
2022/11/19 06:19:18;;;;;;;11.45;8.40;;;;;;;4.17;100.00;99739.88;5043062;28;20249;-77
2022/11/19 06:21:45;;;;;;;10.73;7.90;;;;;;;4.17;100.00;99745.22;5039696;28;20236;-76
2022/11/19 06:24:13;;;;;;;13.57;8.50;;;;;;;4.18;100.00;99747.84;5038133;28;20309;-76
2022/11/19 06:26:40;;;;;;;12.23;8.35;;;;;;;4.14;100.00;99750.63;5028407;28;20209;-76
2022/11/19 06:29:06;;;;;;;11.38;7.97;;;;;;;4.12;100.00;99749.81;5035780;28;20214;-76
2022/11/19 06:31:33;;;;;;;12.27;9.20;;;;;;;4.05;100.00;99749.13;5035521;28;20208;-74
2022/11/19 06:34:00;;;;;;;13.27;8.45;;;;;;;4.10;100.00;99756.97;5033672;28;20217;-77
2022/11/19 06:36:27;;;;;;;13.57;8.95;;;;;;;4.12;100.00;99757.81;5030431;28;20292;-76
2022/11/19 06:38:53;;;;;;;17.33;9.80;;;;;;;4.09;100.00;99758.78;5029585;28;20219;-77
2022/11/19 06:41:21;;;;;;;12.50;8.55;;;;;;;4.04;100.00;99760.66;5032020;28;20289;-75
2022/11/19 06:43:48;;;;;;;12.10;8.50;;;;;;;3.99;100.00;99767.06;5019918;28;20293;-76
2022/11/19 06:46:15;;;;;;;12.82;8.55;;;;;;;3.95;100.00;99763.59;5032709;28;20199;-77
2022/11/19 06:48:42;;;;;;;15.27;9.68;;;;;;;3.95;100.00;99767.13;5028654;28;20225;-76
2022/11/19 06:51:09;;;;;;;15.45;10.07;;;;;;;3.95;100.00;99771.59;5034221;28;20210;-77
2022/11/19 06:53:36;;;;;;;13.13;9.52;;;;;;;3.94;100.00;99773.41;5036236;28;20225;-75
2022/11/19 06:56:05;;;;;;;14.80;9.38;;;;;;;3.94;100.00;99773.41;5041896;28;20198;-77
2022/11/19 06:58:33;;;;;;;16.00;10.07;;;;;;;3.92;100.00;99777.03;5029694;28;20244;-75
2022/11/19 07:01:00;;;;;;;14.00;10.50;;;;;;;3.88;100.00;99776.22;5034834;28;20198;-75
2022/11/19 07:03:27;;;;;;;15.27;9.45;;;;;;;3.92;100.00;99777.88;5045052;28;20581;-78
2022/11/19 07:05:56;;;;;;;14.95;9.70;;;;;;;3.93;100.00;99779.66;5051162;28;20651;-75
2022/11/19 07:08:23;;;;;;;15.25;9.82;;;;;;;3.95;100.00;99772.47;5044096;28;20213;-76
2022/11/19 07:10:50;;;;;;;15.30;10.95;;;;;;;3.92;100.00;99775.22;5039406;28;20612;-75
2022/11/19 07:13:16;;;;;;;15.82;10.50;;;;;;;3.93;100.00;99779.66;5033318;28;20229;-77
2022/11/19 07:15:44;;;;;;;13.93;9.73;;;;;;;3.90;100.00;99785.03;5041634;28;20205;-76
2022/11/19 07:18:11;;;;;;;14.40;10.30;;;;;;;3.83;100.00;99786.13;5040491;28;20308;-75
2022/11/19 07:20:38;;;;;;;13.60;9.95;;;;;;;3.80;100.00;99794.22;5044289;28;20233;-75
2022/11/19 07:23:09;;;;;;;14.80;10.43;;;;;;;3.83;100.00;99794.13;5035683;28;20194;-75
2022/11/19 07:25:36;;;;;;;16.85;10.85;;;;;;;3.80;100.00;99796.00;5031355;28;20197;-74
2022/11/19 07:28:03;;;;;;;14.68;10.23;;;;;;;3.66;100.00;99788.38;5037564;28;20655;-73
2022/11/19 07:30:30;;;;;;;16.63;10.18;;;;;;;3.67;100.00;99796.34;5041261;28;20211;-77
2022/11/19 07:32:58;;;;;;;17.38;11.15;;;;;;;3.61;100.00;99804.47;5039528;28;20609;-76
2022/11/19 07:35:25;;;;;;;16.23;10.65;;;;;;;3.59;100.00;99802.78;5038030;28;20233;-74
2022/11/19 07:37:51;;;;;;;15.18;10.25;;;;;;;3.62;100.00;99800.91;5028204;28;20218;-74
2022/11/19 07:40:18;;;;;;;15.77;10.77;;;;;;;3.58;100.00;99809.91;5024973;28;20225;-76
2022/11/19 07:42:52;;;;;;;16.05;10.30;;;;;;;3.58;100.00;99807.22;5033978;28;20205;-75
2022/11/19 07:45:21;;;;;;;14.23;9.57;;;;;;;3.52;100.00;99802.94;5044351;28;20780;-75
2022/11/19 07:47:48;;;;;;;18.52;9.95;;;;;;;3.51;100.00;99814.50;5043413;28;21134;-74
2022/11/19 07:50:17;;;;;;;15.70;10.63;;;;;;;3.40;100.00;99821.03;5037467;28;20286;-75
2022/11/19 07:52:43;;;;;;;17.02;10.77;;;;;;;3.39;100.00;99820.13;5043797;28;20204;-76
2022/11/19 07:55:10;;;;;;;18.27;10.70;;;;;;;3.33;100.00;99826.50;5043906;28;20236;-77
2022/11/19 07:57:37;;;;;;;16.10;10.50;;;;;;;3.39;100.00;99820.13;5046657;28;20314;-78
2022/11/19 08:00:04;;;;;;;16.73;10.68;;;;;;;3.45;100.00;99819.97;5035770;28;20209;-76
2022/11/19 08:02:31;;;;;;;18.48;9.68;;;;;;;3.46;100.00;99826.16;5034465;28;20204;-76
2022/11/19 08:04:58;;;;;;;13.43;9.63;;;;;;;3.32;100.00;99823.84;5045326;28;20202;-75
2022/11/19 08:07:26;;;;;;;12.13;9.10;;;;;;;3.37;100.00;99834.38;5052352;28;20207;-76
2022/11/19 08:09:52;;;;;;;15.25;9.52;;;;;;;3.35;100.00;99826.47;5043415;28;20213;-74
2022/11/19 08:12:19;;;;;;;13.82;9.55;;;;;;;3.42;100.00;99830.72;5049173;28;20204;-76
2022/11/19 08:14:45;;;;;;;15.30;9.98;;;;;;;3.43;100.00;99836.91;5028260;28;20223;-74
2022/11/19 08:19:56;;;;;;;14.07;9.55;;;;;;;3.58;100.00;99831.19;5038643;28;20320;-78
2022/11/19 08:22:22;;;;;;;15.07;10.25;;;;;;;3.59;100.00;99829.41;5047859;28;20194;-75
2022/11/19 08:24:50;;;;;;;15.20;9.93;;;;;;;3.56;100.00;99833.03;5047842;28;20209;-75
2022/11/19 08:27:17;;;;;;;14.07;9.30;;;;;;;3.49;100.00;99839.41;5039015;28;20216;-75
2022/11/19 08:29:43;;;;;;;15.80;10.55;;;;;;;3.60;100.00;99841.81;5040609;28;20194;-78
2022/11/19 08:32:10;;;;;;;14.90;10.20;;;;;;;3.52;100.00;99840.19;5044525;28;20253;-77
2022/11/19 08:34:37;;;;;;;15.95;10.50;;;;;;;3.54;100.00;99845.50;5051327;28;20264;-74
2022/11/19 08:37:03;;;;;;;16.08;9.40;;;;;;;3.59;100.00;99854.22;5043855;28;20190;-75
2022/11/19 08:39:30;;;;;;;15.75;9.38;;;;;;;3.65;100.00;99855.88;5038960;28;20224;-76
2022/11/19 08:44:43;;;;;;;15.57;9.93;;;;;;;3.59;100.00;99856.91;5024573;28;20563;-74
2022/11/19 08:47:10;;;;;;;208.70;118.93;;;;;;;3.78;100.00;99864.41;5045739;28;20202;-78
2022/11/19 08:49:37;;;;;;;41.53;26.58;;;;;;;3.82;100.00;99860.75;5043614;28;20214;-75
2022/11/19 08:52:03;;;;;;;14.13;9.45;;;;;;;3.78;100.00;99865.31;5043657;28;20237;-74
2022/11/19 08:54:30;;;;;;;12.32;9.98;;;;;;;3.71;100.00;99863.72;5059808;28;20270;-79
2022/11/19 08:56:58;;;;;;;19.00;9.70;;;;;;;3.61;100.00;99873.72;5065534;28;20242;-74
2022/11/19 08:59:24;;;;;;;11.63;8.48;;;;;;;3.59;100.00;99869.34;5056221;28;20230;-76
2022/11/19 09:01:51;;;;;;;14.15;9.00;;;;;;;3.61;100.00;99872.84;5062119;28;20185;-76
2022/11/19 09:04:18;;;;;;;9.82;7.70;;;;;;;3.62;100.00;99875.47;5061338;28;20205;-79
2022/11/19 09:06:44;;;;;;;11.32;8.25;;;;;;;3.61;100.00;99875.50;5052721;28;20209;-81
2022/11/19 09:09:11;;;;;;;13.77;8.57;;;;;;;3.55;100.00;99880.09;5054884;28;20225;-81
2022/11/19 09:11:37;;;;;;;11.50;7.90;;;;;;;3.61;100.00;99872.84;5059600;28;20209;-78
2022/11/19 09:14:05;;;;;;;11.48;8.30;;;;;;;3.55;100.00;99877.41;5059608;28;20217;-80
2022/11/19 09:16:32;;;;;;;11.40;8.25;;;;;;;3.57;100.00;99877.34;5039925;28;20198;-75
2022/11/19 09:19:00;;;;;;;11.50;7.95;;;;;;;3.71;100.00;99882.38;5033803;28;20228;-74
2022/11/19 09:21:26;;;;;;;9.82;7.25;;;;;;;3.64;100.00;99886.06;5024411;28;20203;-75
2022/11/19 09:23:53;;;;;;;11.48;8.05;;;;;;;3.72;100.00;99892.09;5019360;28;20207;-76
2022/11/19 09:26:19;;;;;;;9.95;6.60;;;;;;;3.80;100.00;99891.88;5020395;28;20695;-77
2022/11/19 09:28:46;;;;;;;11.68;7.57;;;;;;;3.89;100.00;99884.53;5027973;28;20225;-76
2022/11/19 09:31:17;;;;;;;10.68;7.90;;;;;;;3.87;100.00;99886.38;5035160;28;20208;-74
2022/11/19 09:33:45;;;;;;;10.90;8.68;;;;;;;3.95;100.00;99897.69;5019916;28;20213;-76
2022/11/19 09:36:13;;;;;;;10.30;7.47;;;;;;;4.05;100.00;99898.34;5037860;28;20293;-76
2022/11/19 09:38:40;;;;;;;10.77;7.57;;;;;;;4.00;100.00;99902.88;5032583;28;20284;-75
2022/11/19 09:41:49;;;;;;;9.45;6.68;;;;;;;4.07;100.00;99906.25;5019761;28;20195;-75
2022/11/19 09:44:35;;;;;;;8.45;6.20;;;;;;;3.93;100.00;99909.28;4969982;28;20247;-76
2022/11/19 09:47:16;;;;;;;9.50;7.03;;;;;;;3.96;100.00;99914.56;4974669;28;20206;-76
2022/11/19 09:49:47;;;;;;;14.35;8.77;;;;;;;4.17;100.00;99911.31;4974455;28;20189;-74
2022/11/19 09:52:17;;;;;;;11.50;8.13;;;;;;;4.29;100.00;99915.44;4976563;28;20287;-76
2022/11/19 09:54:48;;;;;;;9.27;6.80;;;;;;;4.41;100.00;99911.56;4976887;28;20314;-77
2022/11/19 09:57:21;;;;;;;8.85;6.85;;;;;;;4.57;100.00;99910.22;4975122;28;20284;-75
2022/11/19 09:59:50;;;;;;;9.68;6.40;;;;;;;4.33;100.00;99916.22;4982817;28;20203;-77
2022/11/19 10:02:20;;;;;;;8.60;6.07;;;;;;;4.10;100.00;99915.06;4995502;28;20267;-74
2022/11/19 10:04:49;;;;;;;9.00;6.40;;;;;;;4.02;100.00;99919.72;4977261;28;20765;-74
2022/11/19 10:07:24;;;;;;;10.00;7.32;;;;;;;4.10;100.00;99914.19;4973432;28;20298;-76
2022/11/19 10:10:00;;;;;;;10.95;7.55;;;;;;;4.14;100.00;99918.53;4971454;28;20219;-75
2022/11/19 10:12:45;;;;;;;9.93;6.95;;;;;;;4.10;100.00;99907.06;4972999;28;20208;-75
2022/11/19 10:15:23;;;;;;;9.57;7.28;;;;;;;4.09;100.00;99902.69;4987042;28;20250;-76
2022/11/19 10:18:01;;;;;;;9.43;7.20;;;;;;;4.14;100.00;99897.22;5012832;28;20265;-74
2022/11/19 10:20:52;;;;;;;8.20;5.97;;;;;;;4.15;100.00;99898.94;5037015;28;20186;-76
2022/11/19 10:23:25;;;;;;;7.88;6.28;;;;;;;4.11;100.00;99907.94;5038179;28;20292;-76
2022/11/19 10:25:58;;;;;;;10.32;6.05;;;;;;;4.13;100.00;99898.97;5042335;28;20222;-75
2022/11/19 10:28:27;;;;;;;9.73;6.72;;;;;;;4.20;100.00;99915.69;5039372;28;20228;-77
2022/11/19 10:30:59;;;;;;;10.45;7.30;;;;;;;4.27;100.00;99911.94;5033501;28;20222;-75
2022/11/19 10:33:32;;;;;;;9.07;6.50;;;;;;;4.15;100.00;99909.63;5042564;28;20254;-76
2022/11/19 10:36:03;;;;;;;8.82;6.53;;;;;;;4.17;100.00;99918.44;5039677;28;20190;-74
2022/11/19 10:38:34;;;;;;;13.73;7.43;;;;;;;4.17;100.00;99915.78;5040259;28;20688;-74
2022/11/19 10:41:08;;;;;;;9.45;7.22;;;;;;;4.07;100.00;99917.81;5042671;28;20273;-75
2022/11/19 10:43:40;;;;;;;10.23;7.78;;;;;;;3.92;100.00;99916.41;5033194;28;20187;-75
2022/11/19 10:46:10;;;;;;;50.47;32.25;;;;;;;4.14;100.00;99916.75;5038410;28;20204;-77
2022/11/19 10:48:42;;;;;;;18.80;12.57;;;;;;;4.18;100.00;99907.75;5033458;28;20305;-75
2022/11/19 10:51:20;;;;;;;12.10;8.32;;;;;;;4.08;100.00;99908.91;5041601;28;20620;-77
2022/11/19 10:53:47;;;;;;;11.10;8.10;;;;;;;4.16;100.00;99924.69;5041818;28;20269;-76
2022/11/19 10:56:18;;;;;;;10.05;7.72;;;;;;;4.18;100.00;99906.84;5029720;28;20204;-74
2022/11/19 10:58:49;;;;;;;9.38;7.28;;;;;;;4.24;100.00;99909.38;5053354;22;20300;-75
2022/11/19 11:01:25;;;;;;;10.95;7.80;;;;;;;4.29;100.00;99907.44;5059400;28;20227;-75
2022/11/19 11:04:04;;;;;;;10.05;7.30;;;;;;;4.17;100.00;99916.66;5059795;28;20676;-74
2022/11/19 11:06:49;;;;;;;10.00;7.75;;;;;;;3.99;100.00;99908.28;5056274;28;20227;-74
2022/11/19 11:09:28;;;;;;;12.20;8.65;;;;;;;4.05;100.00;99914.31;5036588;28;20314;-74
2022/11/19 11:14:54;;;;;;;10.95;7.68;;;;;;;4.08;100.00;99905.38;5028090;28;20228;-77
2022/11/19 11:17:24;;;;;;;11.38;9.07;;;;;;;4.14;100.00;99907.88;5030896;28;20238;-75
2022/11/19 11:20:05;;;;;;;10.45;7.85;;;;;;;4.02;100.00;99918.84;5034759;28;20214;-76
2022/11/19 11:22:33;;;;;;;11.15;8.23;;;;;;;4.00;100.00;99918.00;5036208;28;20600;-75
2022/11/19 11:25:01;;;;;;;12.85;8.60;;;;;;;4.13;100.00;99919.44;5029417;28;20186;-75
2022/11/19 11:27:32;;;;;;;10.63;7.57;;;;;;;4.18;100.00;99912.19;5036098;28;20210;-75
2022/11/19 11:30:14;;;;;;;11.52;7.72;;;;;;;4.18;100.00;99912.19;5038052;28;20222;-73
2022/11/19 11:32:41;;;;;;;12.43;7.90;;;;;;;4.27;100.00;99921.72;5033808;28;20191;-76
2022/11/19 11:35:28;;;;;;;11.27;7.63;;;;;;;4.27;100.00;99919.94;5031748;28;20218;-74
2022/11/19 11:37:55;;;;;;;11.43;7.80;;;;;;;4.27;100.00;99911.94;5017073;28;20214;-75
2022/11/19 11:40:23;;;;;;;10.80;8.00;;;;;;;4.27;100.00;99914.59;5018267;28;20222;-76
2022/11/19 11:42:51;;;;;;;10.27;7.50;;;;;;;4.30;100.00;99908.34;5023757;28;20262;-74
2022/11/19 11:45:22;;;;;;;10.77;7.90;;;;;;;4.29;100.00;99907.44;5035510;28;20202;-75
2022/11/19 11:47:49;;;;;;;10.70;7.93;;;;;;;4.26;100.00;99910.19;5019519;28;20266;-73
2022/11/19 11:50:21;;;;;;;11.90;7.80;;;;;;;4.34;100.00;99905.53;5034256;28;20285;-74
2022/11/19 11:52:50;;;;;;;12.07;8.52;;;;;;;4.30;100.00;99909.22;5036971;28;20225;-76
2022/11/19 11:55:31;;;;;;;12.07;8.02;;;;;;;4.36;100.00;99906.38;5030447;28;20803;-75